Time,TemperatureF,DewpointF,PressureIn,WindDirection,WindDirectionDegrees,WindSpeedMPH,WindSpeedGustMPH,Humidity,HourlyPrecipIn,Conditions,Clouds,dailyrainin,SolarRadiationWatts/m^2,SoftwareType,DateUTC
2013-02-27 00:00:00,35.2,32.0,29.67,East,97,7.1,11.5,88,0.04,-RA,OVC,0.81,0.0,WeatherDisplay:10.37,2013-02-27 05:00:00,
2013-02-27 00:05:00,35.4,32.2,29.67,ESE,107,10.4,16.1,88,0.04,-RA,OVC,0.00,0.0,WeatherDisplay:10.37,2013-02-27 05:05:00,
2013-02-27 00:10:00,35.6,32.4,29.67,ESE,113,7.2,17.3,88,0.03,-RA,OVC,0.00,0.0,WeatherDisplay:10.37,2013-02-27 05:10:00,
2013-02-27 00:15:00,35.7,32.2,29.67,East,86,14.3,19.6,87,0.03,-RA,OVC,0.00,0.0,WeatherDisplay:10.37,2013-02-27 05:15:00,
2013-02-27 00:20:00,35.8,32.3,29.66,ESE,105,10.2,21.0,87,0.03,-RA,OVC,0.01,0.0,WeatherDisplay:10.37,2013-02-27 05:20:00,
2013-02-27 00:25:00,35.7,31.9,29.66,ENE,74,8.1,13.8,86,0.03,-RA,OVC,0.01,0.0,WeatherDisplay:10.37,2013-02-27 05:25:00,
2013-02-27 00:30:00,35.8,32.0,29.66,East,99,6.0,12.7,86,0.03,-RA,OVC,0.01,0.0,WeatherDisplay:10.37,2013-02-27 05:30:00,
2013-02-27 00:35:00,35.8,32.0,29.66,ESE,103,10.2,15.0,86,0.02,-RA,OVC,0.01,0.0,WeatherDisplay:10.37,2013-02-27 05:35:00,
2013-02-27 00:40:00,35.8,32.0,29.66,East,97,10.9,18.4,86,0.02,-RA,OVC,0.01,0.0,WeatherDisplay:10.37,2013-02-27 05:40:00,
2013-02-27 00:45:00,35.8,32.0,29.66,East,90,8.9,15.0,86,0.02,-RA,OVC,0.01,0.0,WeatherDisplay:10.37,2013-02-27 05:45:00,
2013-02-27 00:50:00,35.8,32.0,29.66,East,100,11.8,15.0,86,0.02,-RA,OVC,0.01,0.0,WeatherDisplay:10.37,2013-02-27 05:50:00,
2013-02-27 00:55:00,35.9,31.8,29.66,ESE,104,8.5,13.8,85,0.01,-RA,OVC,0.01,0.0,WeatherDisplay:10.37,2013-02-27 05:55:00,
2013-02-27 01:00:00,35.9,31.8,29.67,ESE,105,6.9,14.0,85,0.02,-RA,OVC,0.02,0.0,WeatherDisplay:10.37,2013-02-27 06:00:00,
2013-02-27 01:05:00,35.8,31.7,29.66,East,92,5.7,11.0,85,0.02,-RA,OVC,0.02,0.0,WeatherDisplay:10.37,2013-02-27 06:05:00,
2013-02-27 01:10:00,35.8,31.7,29.66,ESE,104,6.4,11.5,85,0.02,-RA,OVC,0.02,0.0,WeatherDisplay:10.37,2013-02-27 06:10:00,
2013-02-27 01:15:00,36.0,31.9,29.66,ENE,74,10.6,16.1,85,0.02,-RA,OVC,0.02,0.0,WeatherDisplay:10.37,2013-02-27 06:15:00,
2013-02-27 01:20:00,36.1,31.7,29.66,ESE,103,6.6,13.8,84,0.02,-RA,OVC,0.02,0.0,WeatherDisplay:10.37,2013-02-27 06:20:00,
2013-02-27 01:25:00,36.2,31.5,29.66,East,101,6.8,16.1,83,0.01,OVC,,0.02,0.0,WeatherDisplay:10.37,2013-02-27 06:25:00,
2013-02-27 01:30:00,36.4,31.7,29.66,ESE,113,7.6,18.4,83,0.01,OVC,,0.02,0.0,WeatherDisplay:10.37,2013-02-27 06:30:00,
2013-02-27 01:35:00,36.4,31.7,29.66,ESE,114,10.6,18.4,83,0.01,OVC,,0.02,0.0,WeatherDisplay:10.37,2013-02-27 06:35:00,
2013-02-27 01:40:00,36.5,31.5,29.66,ESE,103,5.6,12.7,82,0.01,OVC,,0.02,0.0,WeatherDisplay:10.37,2013-02-27 06:40:00,
2013-02-27 01:45:00,36.5,31.5,29.65,East,88,8.7,16.0,82,0.01,OVC,,0.02,0.0,WeatherDisplay:10.37,2013-02-27 06:45:00,
2013-02-27 01:50:00,36.5,31.5,29.65,ENE,75,10.8,15.0,82,0.01,OVC,,0.02,0.0,WeatherDisplay:10.37,2013-02-27 06:50:00,
2013-02-27 01:55:00,36.6,31.6,29.65,East,97,6.1,15.0,82,0.01,OVC,,0.02,0.0,WeatherDisplay:10.37,2013-02-27 06:55:00,
2013-02-27 02:00:00,36.6,31.3,29.65,East,99,10.2,16.1,81,0.00,OVC,,0.02,0.0,WeatherDisplay:10.37,2013-02-27 07:00:00,
2013-02-27 02:05:00,36.6,31.3,29.64,ESE,105,5.1,11.5,81,0.01,RA,OVC,0.03,0.0,WeatherDisplay:10.37,2013-02-27 07:05:00,
2013-02-27 02:10:00,36.7,31.1,29.64,ESE,114,8.3,14.0,80,0.01,RA,OVC,0.03,0.0,WeatherDisplay:10.37,2013-02-27 07:10:00,
2013-02-27 02:15:00,36.8,31.2,29.64,ESE,103,4.4,11.5,80,0.01,OVC,,0.03,0.0,WeatherDisplay:10.37,2013-02-27 07:15:00,
2013-02-27 02:20:00,36.8,31.2,29.64,East,97,6.7,10.4,80,0.01,OVC,,0.03,0.0,WeatherDisplay:10.37,2013-02-27 07:20:00,
2013-02-27 02:25:00,36.8,30.9,29.63,East,92,5.3,13.8,79,0.01,OVC,,0.03,0.0,WeatherDisplay:10.37,2013-02-27 07:25:00,
2013-02-27 02:30:00,36.8,30.9,29.63,ESE,103,6.0,10.4,79,0.01,OVC,,0.03,0.0,WeatherDisplay:10.37,2013-02-27 07:30:00,
2013-02-27 02:35:00,36.8,30.9,29.62,ESE,106,5.7,10.0,79,0.01,OVC,,0.03,0.0,WeatherDisplay:10.37,2013-02-27 07:35:00,
2013-02-27 02:40:00,36.8,30.9,29.62,ESE,107,5.2,10.4,79,0.01,OVC,,0.03,0.0,WeatherDisplay:10.37,2013-02-27 07:40:00,
2013-02-27 02:46:00,36.8,30.9,29.62,ESE,117,7.7,14.0,79,0.01,OVC,,0.03,0.0,WeatherDisplay:10.37,2013-02-27 07:46:00,
2013-02-27 02:51:00,36.8,30.9,29.62,East,79,4.8,13.0,79,0.01,OVC,,0.03,0.0,WeatherDisplay:10.37,2013-02-27 07:51:00,
2013-02-27 02:56:00,36.8,30.9,29.62,East,92,7.2,11.5,79,0.01,OVC,,0.03,0.0,WeatherDisplay:10.37,2013-02-27 07:56:00,
2013-02-27 03:01:00,36.8,30.9,29.62,East,92,5.9,11.5,79,0.01,OVC,,0.03,0.0,WeatherDisplay:10.37,2013-02-27 08:01:00,
2013-02-27 03:06:00,36.8,30.9,29.62,East,98,4.7,9.0,79,0.01,OVC,,0.03,0.0,WeatherDisplay:10.37,2013-02-27 08:06:00,
2013-02-27 03:11:00,36.8,30.9,29.62,East,97,4.1,7.0,79,0.00,OVC,,0.03,0.0,WeatherDisplay:10.37,2013-02-27 08:11:00,
2013-02-27 03:16:00,36.8,30.9,29.62,ENE,76,2.3,6.0,79,0.00,OVC,,0.03,0.0,WeatherDisplay:10.37,2013-02-27 08:16:00,
2013-02-27 03:21:00,36.9,31.0,29.61,East,87,5.9,7.0,79,0.00,OVC,,0.03,0.0,WeatherDisplay:10.37,2013-02-27 08:21:00,
2013-02-27 03:26:00,36.9,31.0,29.61,East,88,7.0,9.2,79,0.00,OVC,,0.03,0.0,WeatherDisplay:10.37,2013-02-27 08:26:00,
2013-02-27 03:31:00,36.9,31.0,29.60,ESE,105,7.2,11.5,79,0.00,OVC,,0.03,0.0,WeatherDisplay:10.37,2013-02-27 08:31:00,
2013-02-27 03:36:00,37.0,30.8,29.60,ESE,109,7.5,12.7,78,0.00,OVC,,0.03,0.0,WeatherDisplay:10.37,2013-02-27 08:36:00,
2013-02-27 03:41:00,37.0,30.8,29.60,ESE,107,3.5,10.4,78,0.01,RA,OVC,0.04,0.0,WeatherDisplay:10.37,2013-02-27 08:41:00,
2013-02-27 03:46:00,37.0,30.8,29.60,SE,128,4.3,9.0,78,0.01,RA,OVC,0.04,0.0,WeatherDisplay:10.37,2013-02-27 08:46:00,
2013-02-27 03:51:00,37.0,30.8,29.60,East,93,3.7,6.9,78,0.01,OVC,,0.04,0.0,WeatherDisplay:10.37,2013-02-27 08:51:00,
2013-02-27 03:56:00,37.0,30.8,29.60,East,93,5.7,9.2,78,0.01,OVC,,0.04,0.0,WeatherDisplay:10.37,2013-02-27 08:56:00,
2013-02-27 04:01:00,37.0,30.8,29.60,East,101,4.3,8.1,78,0.01,OVC,,0.04,0.0,WeatherDisplay:10.37,2013-02-27 09:01:00,
2013-02-27 04:06:00,36.9,30.7,29.60,East,101,2.6,8.1,78,0.01,OVC,,0.04,0.0,WeatherDisplay:10.37,2013-02-27 09:06:00,
2013-02-27 04:11:00,36.9,30.7,29.59,East,101,1.6,4.6,78,0.01,OVC,,0.04,0.0,WeatherDisplay:10.37,2013-02-27 09:11:00,
2013-02-27 04:16:00,36.9,31.0,29.60,East,99,5.1,8.1,79,0.01,OVC,,0.04,0.0,WeatherDisplay:10.37,2013-02-27 09:16:00,
2013-02-27 04:21:00,36.9,31.0,29.60,East,99,2.9,5.0,79,0.01,OVC,,0.04,0.0,WeatherDisplay:10.37,2013-02-27 09:21:00,
2013-02-27 04:26:00,36.9,31.0,29.59,East,97,2.8,8.1,79,0.01,OVC,,0.04,0.0,WeatherDisplay:10.37,2013-02-27 09:26:00,
2013-02-27 04:31:00,36.8,30.9,29.59,East,97,2.5,6.0,79,0.01,OVC,,0.04,0.0,WeatherDisplay:10.37,2013-02-27 09:31:00,
2013-02-27 04:36:00,36.8,30.9,29.59,East,97,2.6,5.0,79,0.01,OVC,,0.04,0.0,WeatherDisplay:10.37,2013-02-27 09:36:00,
2013-02-27 04:41:00,36.8,30.9,29.60,East,97,1.9,3.5,79,0.00,OVC,,0.04,0.0,WeatherDisplay:10.37,2013-02-27 09:41:00,
2013-02-27 04:46:00,36.8,30.9,29.60,East,97,5.1,7.0,79,0.00,OVC,,0.04,0.0,WeatherDisplay:10.37,2013-02-27 09:46:00,
2013-02-27 04:51:00,36.9,31.0,29.59,East,95,4.8,6.9,79,0.00,OVC,,0.04,0.0,WeatherDisplay:10.37,2013-02-27 09:51:00,
2013-02-27 04:56:00,36.9,31.0,29.59,East,95,2.0,5.8,79,0.00,OVC,,0.04,0.0,WeatherDisplay:10.37,2013-02-27 09:56:00,
2013-02-27 05:01:00,36.9,31.0,29.59,East,95,4.5,8.1,79,0.00,OVC,,0.04,0.0,WeatherDisplay:10.37,2013-02-27 10:01:00,
2013-02-27 05:06:00,36.9,31.0,29.59,East,94,3.8,10.4,79,0.00,OVC,,0.04,0.0,WeatherDisplay:10.37,2013-02-27 10:06:00,
2013-02-27 05:11:00,36.9,31.0,29.59,East,94,6.2,8.1,79,0.00,OVC,,0.04,0.0,WeatherDisplay:10.37,2013-02-27 10:11:00,
2013-02-27 05:16:00,37.0,31.1,29.59,East,82,5.3,8.0,79,0.00,OVC,,0.04,0.0,WeatherDisplay:10.37,2013-02-27 10:16:00,
2013-02-27 05:21:00,36.9,31.0,29.59,East,87,2.7,9.2,79,0.00,OVC,,0.04,0.0,WeatherDisplay:10.37,2013-02-27 10:21:00,
2013-02-27 05:26:00,36.8,31.2,29.59,East,88,3.6,6.0,80,0.00,OVC,,0.04,0.0,WeatherDisplay:10.37,2013-02-27 10:26:00,
2013-02-27 05:31:00,36.7,31.1,29.58,East,92,5.1,8.1,80,0.00,OVC,,0.04,0.0,WeatherDisplay:10.37,2013-02-27 10:31:00,
2013-02-27 05:36:00,36.5,31.2,29.58,East,91,4.0,7.0,81,0.00,OVC,,0.04,0.0,WeatherDisplay:10.37,2013-02-27 10:36:00,
2013-02-27 05:41:00,36.4,31.4,29.58,East,89,5.4,9.0,82,0.00,OVC,,0.04,0.0,WeatherDisplay:10.37,2013-02-27 10:41:00,
2013-02-27 05:46:00,36.3,31.3,29.57,East,87,5.2,8.1,82,0.01,RA,OVC,0.05,0.0,WeatherDisplay:10.37,2013-02-27 10:46:00,
2013-02-27 05:51:00,36.2,31.5,29.57,East,86,5.8,8.0,83,0.01,RA,OVC,0.05,0.0,WeatherDisplay:10.37,2013-02-27 10:51:00,
2013-02-27 05:57:00,36.1,31.7,29.58,East,86,1.5,5.8,84,0.01,OVC,,0.05,0.0,WeatherDisplay:10.37,2013-02-27 10:57:00,
2013-02-27 06:02:00,36.0,31.6,29.58,East,86,0.8,4.6,84,0.01,OVC,,0.05,0.0,WeatherDisplay:10.37,2013-02-27 11:02:00,
2013-02-27 06:07:00,36.0,31.6,29.58,East,86,0.6,2.3,84,0.01,OVC,,0.05,0.0,WeatherDisplay:10.37,2013-02-27 11:07:00,
2013-02-27 06:12:00,36.0,31.6,29.58,East,85,3.1,6.0,84,0.01,OVC,,0.05,0.0,WeatherDisplay:10.37,2013-02-27 11:12:00,
2013-02-27 06:17:00,35.9,31.5,29.58,East,85,1.3,3.5,84,0.01,OVC,,0.05,0.0,WeatherDisplay:10.37,2013-02-27 11:17:00,
2013-02-27 06:22:00,35.9,31.8,29.58,East,85,1.1,3.5,85,0.01,-SN,OVC,0.05,0.0,WeatherDisplay:10.37,2013-02-27 11:22:00,
2013-02-27 06:27:00,35.8,31.7,29.58,East,85,0.9,2.3,85,0.01,-SN,OVC,0.05,0.0,WeatherDisplay:10.37,2013-02-27 11:27:00,
2013-02-27 06:32:00,35.7,31.6,29.57,East,85,1.4,4.6,85,0.01,-RA,OVC,0.05,0.0,WeatherDisplay:10.37,2013-02-27 11:32:00,
2013-02-27 06:37:00,35.7,31.9,29.57,East,88,1.8,5.0,86,0.02,-RA,OVC,0.06,0.0,WeatherDisplay:10.37,2013-02-27 11:37:00,
2013-02-27 06:42:00,35.7,31.9,29.57,East,88,2.9,5.8,86,0.02,-RA,OVC,0.06,0.0,WeatherDisplay:10.37,2013-02-27 11:42:00,
2013-02-27 06:47:00,35.7,31.9,29.57,East,86,0.5,5.8,86,0.01,-RA,OVC,0.06,0.0,WeatherDisplay:10.37,2013-02-27 11:47:00,
2013-02-27 06:52:00,35.7,31.9,29.57,East,86,2.0,5.0,86,0.01,-RA,OVC,0.06,0.0,WeatherDisplay:10.37,2013-02-27 11:52:00,
2013-02-27 06:57:00,35.7,31.9,29.56,East,86,2.9,5.0,86,0.01,-RA,OVC,0.06,0.0,WeatherDisplay:10.37,2013-02-27 11:57:00,
2013-02-27 07:02:00,35.6,31.8,29.56,East,86,2.0,3.5,86,0.01,-RA,OVC,0.06,0.0,WeatherDisplay:10.37,2013-02-27 12:02:00,
2013-02-27 07:07:00,35.6,31.8,29.57,East,86,3.1,5.0,86,0.01,-RA,OVC,0.06,0.0,WeatherDisplay:10.37,2013-02-27 12:07:00,
2013-02-27 07:12:00,35.6,31.8,29.57,East,86,2.8,5.0,86,0.01,-RA,OVC,0.06,0.0,WeatherDisplay:10.37,2013-02-27 12:12:00,
2013-02-27 07:17:00,35.6,31.8,29.57,East,86,2.9,5.0,86,0.01,-RA,OVC,0.06,0.0,WeatherDisplay:10.37,2013-02-27 12:17:00,
2013-02-27 07:22:00,35.5,31.7,29.57,East,86,1.1,5.8,86,0.01,-RA,OVC,0.06,5.0,WeatherDisplay:10.37,2013-02-27 12:22:00,
2013-02-27 07:27:00,35.5,31.7,29.57,East,86,2.7,6.0,86,0.01,-RA,OVC,0.06,5.0,WeatherDisplay:10.37,2013-02-27 12:27:00,
2013-02-27 07:32:00,35.5,32.0,29.56,East,86,1.2,3.5,87,0.01,-RA,OVC,0.06,7.0,WeatherDisplay:10.37,2013-02-27 12:32:00,
2013-02-27 07:37:00,35.5,32.0,29.56,East,86,0.9,3.5,87,0.00,-RA,OVC,0.06,9.0,WeatherDisplay:10.37,2013-02-27 12:37:00,
2013-02-27 07:42:00,35.5,32.0,29.57,East,86,0.4,2.3,87,0.00,-RA,OVC,0.06,9.0,WeatherDisplay:10.37,2013-02-27 12:42:00,
2013-02-27 07:47:00,35.5,32.0,29.57,East,86,1.4,2.3,87,0.00,-RA,OVC,0.06,9.0,WeatherDisplay:10.37,2013-02-27 12:47:00,
2013-02-27 07:53:00,35.5,32.0,29.57,East,86,0.6,2.3,87,0.00,-RA,OVC,0.06,11.0,WeatherDisplay:10.37,2013-02-27 12:53:00,
2013-02-27 07:58:00,35.5,32.0,29.57,East,86,0.6,2.3,87,0.00,-RA,OVC,0.06,11.0,WeatherDisplay:10.37,2013-02-27 12:58:00,
2013-02-27 08:03:00,35.5,32.0,29.57,East,86,0.3,3.5,87,0.01,-RA,OVC,0.07,16.0,WeatherDisplay:10.37,2013-02-27 13:03:00,
2013-02-27 08:08:00,35.4,31.9,29.58,East,86,0.2,1.1,87,0.01,-RA,OVC,0.07,18.0,WeatherDisplay:10.37,2013-02-27 13:08:00,
2013-02-27 08:13:00,35.3,32.1,29.58,East,86,1.1,2.3,88,0.01,-RA,OVC,0.07,23.0,WeatherDisplay:10.37,2013-02-27 13:13:00,
2013-02-27 08:18:00,35.2,32.0,29.58,East,86,2.4,3.5,88,0.02,-RA,OVC,0.08,25.0,WeatherDisplay:10.37,2013-02-27 13:18:00,
2013-02-27 08:23:00,35.0,31.8,29.58,East,86,1.1,2.3,88,0.02,-SN,OVC,0.08,26.0,WeatherDisplay:10.37,2013-02-27 13:23:00,
2013-02-27 08:28:00,34.8,31.6,29.58,East,86,2.6,5.0,88,0.02,-SN,OVC,0.08,37.0,WeatherDisplay:10.37,2013-02-27 13:28:00,
2013-02-27 08:33:00,34.6,31.4,29.58,East,86,1.6,3.5,88,0.02,-SN,OVC,0.08,32.0,WeatherDisplay:10.37,2013-02-27 13:33:00,
2013-02-27 08:38:00,34.6,31.4,29.58,East,86,2.2,3.5,88,0.02,-SN,OVC,0.08,35.0,WeatherDisplay:10.37,2013-02-27 13:38:00,
2013-02-27 08:43:00,34.5,31.3,29.58,East,86,2.0,4.6,88,0.02,-SN,OVC,0.08,42.0,WeatherDisplay:10.37,2013-02-27 13:43:00,
2013-02-27 08:48:00,34.4,31.5,29.58,East,86,2.6,5.0,89,0.02,-SN,OVC,0.08,39.0,WeatherDisplay:10.37,2013-02-27 13:48:00,
2013-02-27 08:53:00,34.4,31.5,29.58,East,86,2.4,5.0,89,0.02,-SN,OVC,0.08,44.0,WeatherDisplay:10.37,2013-02-27 13:53:00,
2013-02-27 08:58:00,34.4,31.5,29.58,East,86,2.5,5.0,89,0.02,-SN,OVC,0.09,37.0,WeatherDisplay:10.37,2013-02-27 13:58:00,
2013-02-27 09:03:00,34.5,31.6,29.58,East,86,2.0,3.5,89,0.02,-SN,OVC,0.09,39.0,WeatherDisplay:10.37,2013-02-27 14:03:00,
2013-02-27 09:08:00,34.5,31.6,29.58,East,86,1.3,3.5,89,0.02,-SN,OVC,0.09,32.0,WeatherDisplay:10.37,2013-02-27 14:08:00,
2013-02-27 09:13:00,34.5,31.6,29.58,East,86,1.5,3.0,89,0.02,-SN,OVC,0.09,35.0,WeatherDisplay:10.37,2013-02-27 14:13:00,
2013-02-27 09:18:00,34.4,31.5,29.58,East,86,1.5,3.0,89,0.01,-SN,OVC,0.09,32.0,WeatherDisplay:10.37,2013-02-27 14:18:00,
2013-02-27 09:23:00,34.4,31.5,29.58,East,86,1.5,3.5,89,0.01,-SN,OVC,0.09,37.0,WeatherDisplay:10.37,2013-02-27 14:23:00,
2013-02-27 09:28:00,34.4,31.5,29.58,East,86,1.8,3.5,89,0.01,-SN,OVC,0.09,39.0,WeatherDisplay:10.37,2013-02-27 14:28:00,
2013-02-27 09:33:00,34.3,31.4,29.58,East,86,0.5,2.3,89,0.01,-SN,OVC,0.09,40.0,WeatherDisplay:10.37,2013-02-27 14:33:00,
2013-02-27 09:38:00,34.2,31.3,29.58,East,86,1.0,3.5,89,0.02,-SN,OVC,0.10,42.0,WeatherDisplay:10.37,2013-02-27 14:38:00,
2013-02-27 09:43:00,34.2,31.6,29.57,East,86,0.0,1.1,90,0.02,-SN,OVC,0.10,47.0,WeatherDisplay:10.37,2013-02-27 14:43:00,
2013-02-27 09:48:00,34.1,31.2,29.57,East,86,0.0,1.1,89,0.03,-SN,OVC,0.11,58.0,WeatherDisplay:10.37,2013-02-27 14:48:00,
2013-02-27 09:53:00,34.1,31.5,29.57,East,86,0.6,2.3,90,0.03,-SN,OVC,0.11,56.0,WeatherDisplay:10.37,2013-02-27 14:53:00,
2013-02-27 09:58:00,34.1,31.5,29.57,East,86,0.7,2.3,90,0.02,-SN,OVC,0.11,56.0,WeatherDisplay:10.37,2013-02-27 14:58:00,
2013-02-27 10:03:00,34.1,31.5,29.58,East,86,1.9,3.5,90,0.03,-SN,OVC,0.12,69.0,WeatherDisplay:10.37,2013-02-27 15:03:00,
2013-02-27 10:08:00,34.1,31.5,29.58,East,86,0.6,2.3,90,0.03,-SN,OVC,0.12,81.0,WeatherDisplay:10.37,2013-02-27 15:08:00,
2013-02-27 10:13:00,34.1,31.5,29.58,East,86,0.7,1.1,90,0.03,-SN,OVC,0.12,79.0,WeatherDisplay:10.37,2013-02-27 15:13:00,
2013-02-27 10:18:00,34.0,31.4,29.58,East,86,2.4,3.5,90,0.03,-SN,OVC,0.12,79.0,WeatherDisplay:10.37,2013-02-27 15:18:00,
2013-02-27 10:23:00,34.0,31.4,29.58,East,86,1.3,4.6,90,0.03,-SN,OVC,0.13,79.0,WeatherDisplay:10.37,2013-02-27 15:23:00,
2013-02-27 10:29:00,33.9,31.3,29.58,East,86,1.9,4.6,90,0.04,-SN,OVC,0.13,83.0,WeatherDisplay:10.37,2013-02-27 15:29:00,
2013-02-27 10:34:00,33.8,31.2,29.58,East,86,2.8,5.0,90,0.03,-SN,OVC,0.13,79.0,WeatherDisplay:10.37,2013-02-27 15:34:00,
2013-02-27 10:39:00,33.7,31.1,29.58,East,86,1.7,3.5,90,0.04,-SN,OVC,0.14,93.0,WeatherDisplay:10.37,2013-02-27 15:39:00,
2013-02-27 10:44:00,33.7,31.1,29.58,East,86,1.4,5.0,90,0.04,-SN,OVC,0.14,91.0,WeatherDisplay:10.37,2013-02-27 15:44:00,
2013-02-27 10:49:00,33.7,31.1,29.58,East,86,1.4,3.5,90,0.03,-SN,OVC,0.14,100.0,WeatherDisplay:10.37,2013-02-27 15:49:00,
2013-02-27 10:54:00,33.7,31.1,29.58,East,86,0.5,2.0,90,0.03,-SN,OVC,0.15,98.0,WeatherDisplay:10.37,2013-02-27 15:54:00,
2013-02-27 10:59:00,33.8,31.2,29.58,East,86,1.5,3.0,90,0.04,-SN,OVC,0.15,98.0,WeatherDisplay:10.37,2013-02-27 15:59:00,
2013-02-27 11:04:00,33.9,31.3,29.58,East,86,0.9,3.5,90,0.03,-SN,OVC,0.15,100.0,WeatherDisplay:10.37,2013-02-27 16:04:00,
2013-02-27 11:09:00,34.0,31.4,29.57,East,86,1.3,2.3,90,0.03,-SN,OVC,0.15,111.0,WeatherDisplay:10.37,2013-02-27 16:09:00,
2013-02-27 11:14:00,34.1,31.5,29.57,East,86,0.7,2.3,90,0.03,-SN,OVC,0.15,118.0,WeatherDisplay:10.37,2013-02-27 16:14:00,
2013-02-27 11:19:00,34.1,31.5,29.57,East,86,0.0,0.0,90,0.03,-SN,OVC,0.15,114.0,WeatherDisplay:10.37,2013-02-27 16:19:00,
2013-02-27 11:24:00,34.3,31.9,29.57,East,86,0.3,2.3,91,0.03,-SN,OVC,0.15,132.0,WeatherDisplay:10.37,2013-02-27 16:24:00,
2013-02-27 11:29:00,34.5,32.1,29.57,East,86,0.0,0.0,91,0.02,-SN,OVC,0.15,135.0,WeatherDisplay:10.37,2013-02-27 16:29:00,
2013-02-27 11:34:00,34.7,32.3,29.57,East,86,0.0,1.1,91,0.02,-SN,OVC,0.15,125.0,WeatherDisplay:10.37,2013-02-27 16:34:00,
2013-02-27 11:39:00,34.9,32.5,29.57,East,86,0.0,1.1,91,0.01,-SN,OVC,0.15,113.0,WeatherDisplay:10.37,2013-02-27 16:39:00,
2013-02-27 11:44:00,35.1,32.7,29.57,East,86,1.5,2.3,91,0.01,-SN,OVC,0.15,125.0,WeatherDisplay:10.37,2013-02-27 16:44:00,
2013-02-27 11:49:00,35.2,32.8,29.57,East,86,1.4,2.3,91,0.01,-SN,OVC,0.15,104.0,WeatherDisplay:10.37,2013-02-27 16:49:00,
2013-02-27 11:54:00,35.1,32.7,29.57,East,86,0.6,2.3,91,0.02,-RA,OVC,0.16,83.0,WeatherDisplay:10.37,2013-02-27 16:54:00,
2013-02-27 11:59:00,35.2,32.8,29.57,East,86,0.5,2.3,91,0.01,-RA,OVC,0.16,62.0,WeatherDisplay:10.37,2013-02-27 16:59:00,
2013-02-27 12:04:00,35.2,32.8,29.57,East,86,0.0,2.3,91,0.01,-RA,OVC,0.16,81.0,WeatherDisplay:10.37,2013-02-27 17:04:00,
2013-02-27 12:09:00,35.3,32.9,29.57,East,86,0.1,2.3,91,0.01,-RA,OVC,0.16,74.0,WeatherDisplay:10.37,2013-02-27 17:09:00,
2013-02-27 12:14:00,35.3,32.9,29.57,East,86,0.0,0.0,91,0.02,-SN,OVC,0.17,84.0,WeatherDisplay:10.37,2013-02-27 17:14:00,
2013-02-27 12:19:00,35.4,33.0,29.57,East,86,0.0,1.1,91,0.02,-SN,OVC,0.17,86.0,WeatherDisplay:10.37,2013-02-27 17:19:00,
2013-02-27 12:24:00,35.5,33.1,29.57,East,86,0.1,1.0,91,0.03,-SN,OVC,0.18,70.0,WeatherDisplay:10.37,2013-02-27 17:24:00,
2013-02-27 12:29:00,35.5,33.1,29.57,East,86,1.6,3.5,91,0.03,-SN,OVC,0.18,77.0,WeatherDisplay:10.37,2013-02-27 17:29:00,
2013-02-27 12:34:00,35.5,33.1,29.57,East,86,1.3,3.5,91,0.04,-SN,OVC,0.19,76.0,WeatherDisplay:10.37,2013-02-27 17:34:00,
2013-02-27 12:39:00,35.4,33.0,29.57,East,86,0.1,2.3,91,0.04,-SN,OVC,0.19,81.0,WeatherDisplay:10.37,2013-02-27 17:39:00,
2013-02-27 12:44:00,35.3,32.9,29.56,East,86,0.6,2.3,91,0.05,-SN,OVC,0.20,74.0,WeatherDisplay:10.37,2013-02-27 17:44:00,
2013-02-27 12:49:00,35.2,32.6,29.56,East,86,0.0,2.3,90,0.05,-SN,OVC,0.20,67.0,WeatherDisplay:10.37,2013-02-27 17:49:00,
2013-02-27 12:54:00,35.1,32.5,29.56,East,86,0.6,2.0,90,0.04,-SN,OVC,0.21,72.0,WeatherDisplay:10.37,2013-02-27 17:54:00,
2013-02-27 12:59:00,35.0,32.4,29.56,East,86,0.0,2.3,90,0.05,-SN,OVC,0.21,107.0,WeatherDisplay:10.37,2013-02-27 17:59:00,
2013-02-27 13:04:00,35.0,32.4,29.56,East,86,0.0,0.0,90,0.05,-RA,OVC,0.21,134.0,WeatherDisplay:10.37,2013-02-27 18:04:00,
2013-02-27 13:09:00,35.0,32.4,29.55,East,86,0.0,0.0,90,0.06,-RA,OVC,0.22,158.0,WeatherDisplay:10.37,2013-02-27 18:09:00,
2013-02-27 13:14:00,35.0,32.4,29.55,East,86,0.0,0.0,90,0.05,-RA,OVC,0.22,141.0,WeatherDisplay:10.37,2013-02-27 18:14:00,
2013-02-27 13:19:00,35.1,32.5,29.55,East,86,0.0,0.0,90,0.05,-RA,OVC,0.22,135.0,WeatherDisplay:10.37,2013-02-27 18:19:00,
2013-02-27 13:24:00,35.1,32.5,29.55,East,86,0.5,3.5,90,0.05,-RA,OVC,0.23,163.0,WeatherDisplay:10.37,2013-02-27 18:24:00,
2013-02-27 13:29:00,35.2,32.8,29.55,East,88,2.6,5.0,91,0.05,-RA,OVC,0.23,167.0,WeatherDisplay:10.37,2013-02-27 18:29:00,
2013-02-27 13:34:00,35.3,32.9,29.55,East,90,0.7,3.5,91,0.04,-RA,OVC,0.23,165.0,WeatherDisplay:10.37,2013-02-27 18:34:00,
2013-02-27 13:39:00,35.4,33.0,29.55,East,90,2.5,5.0,91,0.04,-RA,OVC,0.23,151.0,WeatherDisplay:10.37,2013-02-27 18:39:00,
2013-02-27 13:44:00,35.6,33.2,29.55,East,91,1.3,4.6,91,0.03,-RA,OVC,0.23,142.0,WeatherDisplay:10.37,2013-02-27 18:44:00,
2013-02-27 13:49:00,35.8,33.4,29.55,South,179,2.0,3.5,91,0.03,-RA,OVC,0.23,156.0,WeatherDisplay:10.37,2013-02-27 18:49:00,
2013-02-27 13:54:00,35.9,33.5,29.54,South,179,1.8,3.5,91,0.04,-SN,OVC,0.24,118.0,WeatherDisplay:10.37,2013-02-27 18:54:00,
2013-02-27 13:59:00,36.0,33.6,29.55,South,179,0.7,3.5,91,0.03,-SN,OVC,0.24,84.0,WeatherDisplay:10.37,2013-02-27 18:59:00,
2013-02-27 14:04:00,36.1,33.7,29.55,South,179,3.5,5.0,91,0.03,-SN,OVC,0.24,62.0,WeatherDisplay:10.37,2013-02-27 19:04:00,
2013-02-27 14:09:00,36.1,33.7,29.55,South,179,1.8,4.0,91,0.02,-SN,OVC,0.24,65.0,WeatherDisplay:10.37,2013-02-27 19:09:00,
2013-02-27 14:14:00,36.0,33.6,29.55,South,180,3.0,4.0,91,0.02,-SN,OVC,0.24,65.0,WeatherDisplay:10.37,2013-02-27 19:14:00,
2013-02-27 14:19:00,36.0,33.6,29.55,South,180,2.3,3.5,91,0.02,-SN,OVC,0.24,90.0,WeatherDisplay:10.37,2013-02-27 19:19:00,
2013-02-27 14:24:00,35.9,33.3,29.55,SW,232,2.1,6.9,90,0.02,-SN,OVC,0.25,125.0,WeatherDisplay:10.37,2013-02-27 19:24:00,
2013-02-27 14:29:00,35.8,33.2,29.55,SW,234,1.7,5.8,90,0.02,-SN,OVC,0.25,120.0,WeatherDisplay:10.37,2013-02-27 19:29:00,
2013-02-27 14:34:00,35.8,33.2,29.55,SW,234,2.8,5.0,90,0.02,-RA,OVC,0.25,114.0,WeatherDisplay:10.37,2013-02-27 19:34:00,
2013-02-27 14:39:00,35.8,33.2,29.55,SW,234,2.4,4.6,90,0.03,-RA,OVC,0.26,114.0,WeatherDisplay:10.37,2013-02-27 19:39:00,
2013-02-27 14:44:00,35.7,33.1,29.55,SW,234,1.0,3.5,90,0.03,-RA,OVC,0.26,153.0,WeatherDisplay:10.37,2013-02-27 19:44:00,
2013-02-27 14:49:00,35.7,33.1,29.55,SW,234,3.5,5.0,90,0.03,-RA,OVC,0.26,144.0,WeatherDisplay:10.37,2013-02-27 19:49:00,
2013-02-27 14:54:00,35.6,33.0,29.55,SW,234,2.9,5.0,90,0.03,-RA,OVC,0.27,132.0,WeatherDisplay:10.37,2013-02-27 19:54:00,
2013-02-27 14:59:00,35.6,33.0,29.55,SW,234,1.6,4.0,90,0.03,-RA,OVC,0.27,118.0,WeatherDisplay:10.37,2013-02-27 19:59:00,
2013-02-27 15:04:00,35.6,33.0,29.55,SW,234,1.5,3.5,90,0.03,-RA,OVC,0.27,98.0,WeatherDisplay:10.37,2013-02-27 20:04:00,
2013-02-27 15:09:00,35.6,33.2,29.55,SW,234,1.7,3.5,91,0.04,-RA,OVC,0.28,102.0,WeatherDisplay:10.37,2013-02-27 20:09:00,
2013-02-27 15:14:00,35.7,33.1,29.56,SW,234,0.6,2.3,90,0.04,-RA,OVC,0.28,88.0,WeatherDisplay:10.37,2013-02-27 20:14:00,
2013-02-27 15:20:00,35.8,33.2,29.56,WSW,237,3.5,7.0,90,0.04,-RA,OVC,0.28,60.0,WeatherDisplay:10.37,2013-02-27 20:20:00,
2013-02-27 15:25:00,35.7,33.1,29.56,WSW,238,2.3,4.6,90,0.04,-RA,OVC,0.29,56.0,WeatherDisplay:10.37,2013-02-27 20:25:00,
2013-02-27 15:30:00,35.7,33.1,29.56,WSW,238,0.3,3.5,90,0.04,-RA,OVC,0.29,46.0,WeatherDisplay:10.37,2013-02-27 20:30:00,
2013-02-27 15:35:00,35.8,33.2,29.56,WSW,238,0.3,2.3,90,0.04,-RA,OVC,0.29,47.0,WeatherDisplay:10.37,2013-02-27 20:35:00,
2013-02-27 15:40:00,35.8,33.2,29.56,WSW,238,0.0,2.3,90,0.04,-RA,OVC,0.30,51.0,WeatherDisplay:10.37,2013-02-27 20:40:00,
2013-02-27 15:45:00,35.8,33.2,29.56,WSW,238,0.0,2.3,90,0.04,-RA,OVC,0.30,53.0,WeatherDisplay:10.37,2013-02-27 20:45:00,
2013-02-27 15:50:00,35.9,33.3,29.56,WSW,238,0.0,0.0,90,0.05,-RA,OVC,0.31,39.0,WeatherDisplay:10.37,2013-02-27 20:50:00,
2013-02-27 15:55:00,35.9,33.3,29.56,WSW,238,1.5,3.5,90,0.04,-RA,OVC,0.31,39.0,WeatherDisplay:10.37,2013-02-27 20:55:00,
2013-02-27 16:00:00,36.0,33.6,29.56,WSW,238,3.1,6.9,91,0.05,-RA,OVC,0.32,44.0,WeatherDisplay:10.37,2013-02-27 21:00:00,
2013-02-27 16:05:00,36.2,33.8,29.55,WSW,242,4.2,7.0,91,0.05,-RA,OVC,0.32,69.0,WeatherDisplay:10.37,2013-02-27 21:05:00,
2013-02-27 16:10:00,36.4,34.0,29.55,WSW,248,4.5,9.2,91,0.05,-RA,OVC,0.33,84.0,WeatherDisplay:10.37,2013-02-27 21:10:00,
2013-02-27 16:15:00,36.6,34.2,29.55,WSW,250,7.7,12.7,91,0.05,-RA,OVC,0.33,56.0,WeatherDisplay:10.37,2013-02-27 21:15:00,
2013-02-27 16:20:00,36.6,34.2,29.55,WSW,255,4.3,9.2,91,0.05,-RA,OVC,0.33,44.0,WeatherDisplay:10.37,2013-02-27 21:20:00,
2013-02-27 16:25:00,36.7,34.3,29.55,WSW,247,6.4,12.7,91,0.05,-RA,OVC,0.34,25.0,WeatherDisplay:10.37,2013-02-27 21:25:00,
2013-02-27 16:30:00,36.6,34.2,29.56,WSW,249,6.3,10.4,91,0.05,-RA,OVC,0.34,28.0,WeatherDisplay:10.37,2013-02-27 21:30:00,
2013-02-27 16:35:00,36.6,34.2,29.56,WSW,248,5.2,11.5,91,0.05,-RA,OVC,0.34,30.0,WeatherDisplay:10.37,2013-02-27 21:35:00,
2013-02-27 16:40:00,36.6,33.9,29.56,WSW,252,6.1,8.1,90,0.04,-RA,OVC,0.34,26.0,WeatherDisplay:10.37,2013-02-27 21:40:00,
2013-02-27 16:45:00,36.5,33.8,29.55,WSW,246,7.7,10.0,90,0.04,-RA,OVC,0.34,16.0,WeatherDisplay:10.37,2013-02-27 21:45:00,
2013-02-27 16:50:00,36.5,33.8,29.55,WSW,248,3.9,6.9,90,0.04,-RA,OVC,0.35,11.0,WeatherDisplay:10.37,2013-02-27 21:50:00,
2013-02-27 16:55:00,36.5,33.8,29.56,WSW,251,3.2,8.1,90,0.04,-RA,OVC,0.35,12.0,WeatherDisplay:10.37,2013-02-27 21:55:00,
2013-02-27 17:00:00,36.4,33.7,29.56,WSW,251,4.7,7.0,90,0.03,-RA,OVC,0.35,9.0,WeatherDisplay:10.37,2013-02-27 22:00:00,
2013-02-27 17:05:00,36.4,33.7,29.56,WSW,252,5.5,10.4,90,0.03,-RA,OVC,0.35,12.0,WeatherDisplay:10.37,2013-02-27 22:05:00,
2013-02-27 17:10:00,36.3,33.6,29.56,WSW,249,6.4,9.2,90,0.02,-RA,OVC,0.35,7.0,WeatherDisplay:10.37,2013-02-27 22:10:00,
2013-02-27 17:15:00,36.2,33.5,29.56,WSW,248,5.0,6.9,90,0.03,-RA,OVC,0.36,0.0,WeatherDisplay:10.37,2013-02-27 22:15:00,
2013-02-27 17:20:00,36.1,33.5,29.56,WSW,249,2.7,6.0,90,0.03,-RA,OVC,0.36,0.0,WeatherDisplay:10.37,2013-02-27 22:20:00,
2013-02-27 17:25:00,36.0,33.6,29.57,WSW,251,3.5,5.0,91,0.02,-RA,OVC,0.36,0.0,WeatherDisplay:10.37,2013-02-27 22:25:00,
2013-02-27 17:30:00,35.9,33.3,29.57,WSW,251,2.9,4.6,90,0.02,-RA,OVC,0.36,0.0,WeatherDisplay:10.37,2013-02-27 22:30:00,
2013-02-27 17:35:00,35.9,33.3,29.57,WSW,251,2.2,4.6,90,0.02,-RA,OVC,0.36,0.0,WeatherDisplay:10.37,2013-02-27 22:35:00,
2013-02-27 17:40:00,35.8,33.2,29.57,WSW,251,2.5,4.6,90,0.02,-RA,OVC,0.36,0.0,WeatherDisplay:10.37,2013-02-27 22:40:00,
2013-02-27 17:45:00,35.7,33.1,29.57,WSW,248,3.2,5.8,90,0.02,-RA,OVC,0.37,0.0,WeatherDisplay:10.37,2013-02-27 22:45:00,
2013-02-27 17:50:00,35.6,33.0,29.57,WSW,248,2.5,3.5,90,0.02,-RA,OVC,0.37,0.0,WeatherDisplay:10.37,2013-02-27 22:50:00,
2013-02-27 17:55:00,35.5,32.9,29.57,WSW,248,0.4,3.5,90,0.02,-RA,OVC,0.37,0.0,WeatherDisplay:10.37,2013-02-27 22:55:00,
2013-02-27 18:00:00,35.5,32.9,29.57,WSW,248,1.4,3.5,90,0.03,-RA,OVC,0.38,0.0,WeatherDisplay:10.37,2013-02-27 23:00:00,
2013-02-27 18:05:00,35.4,33.0,29.57,WSW,248,0.8,2.3,91,0.03,-RA,OVC,0.38,0.0,WeatherDisplay:10.37,2013-02-27 23:05:00,
2013-02-27 18:10:00,35.4,33.0,29.57,WSW,248,1.7,3.5,91,0.03,-RA,OVC,0.38,0.0,WeatherDisplay:10.37,2013-02-27 23:10:00,
2013-02-27 18:15:00,35.3,32.9,29.57,WSW,248,0.1,3.5,91,0.02,-RA,OVC,0.38,0.0,WeatherDisplay:10.37,2013-02-27 23:15:00,
2013-02-27 18:20:00,35.3,32.9,29.58,WSW,248,0.7,2.3,91,0.02,-RA,OVC,0.38,0.0,WeatherDisplay:10.37,2013-02-27 23:20:00,
2013-02-27 18:25:00,35.3,32.9,29.58,WSW,248,1.8,4.0,91,0.03,-RA,OVC,0.39,0.0,WeatherDisplay:10.37,2013-02-27 23:25:00,
2013-02-27 18:30:00,35.2,32.6,29.58,WSW,248,1.8,4.6,90,0.03,-RA,OVC,0.39,0.0,WeatherDisplay:10.37,2013-02-27 23:30:00,
2013-02-27 18:35:00,35.2,32.6,29.58,WSW,248,2.5,4.6,90,0.04,-RA,OVC,0.40,0.0,WeatherDisplay:10.37,2013-02-27 23:35:00,
2013-02-27 18:40:00,35.2,32.6,29.58,WSW,248,2.6,4.0,90,0.04,-RA,OVC,0.40,0.0,WeatherDisplay:10.37,2013-02-27 23:40:00,
2013-02-27 18:45:00,35.1,32.5,29.58,WSW,248,4.4,7.0,90,0.03,-SN,OVC,0.40,0.0,WeatherDisplay:10.37,2013-02-27 23:45:00,
2013-02-27 18:50:00,35.0,32.4,29.58,WSW,248,2.9,4.6,90,0.04,-SN,OVC,0.41,0.0,WeatherDisplay:10.37,2013-02-27 23:50:00,
2013-02-27 18:55:00,34.8,32.4,29.58,WSW,248,4.3,8.1,91,0.04,-SN,OVC,0.41,0.0,WeatherDisplay:10.37,2013-02-27 23:55:00,
2013-02-27 19:00:00,34.7,32.3,29.58,WSW,252,5.6,8.0,91,0.04,-SN,OVC,0.42,0.0,WeatherDisplay:10.37,2013-02-28 00:00:00,
2013-02-27 19:05:00,34.6,32.0,29.58,WSW,252,4.9,7.0,90,0.04,-SN,OVC,0.42,0.0,WeatherDisplay:10.37,2013-02-28 00:05:00,
2013-02-27 19:10:00,34.5,31.9,29.58,WSW,252,4.1,6.0,90,0.04,-SN,OVC,0.42,0.0,WeatherDisplay:10.37,2013-02-28 00:10:00,
2013-02-27 19:15:00,34.5,32.1,29.58,WSW,249,3.8,6.9,91,0.04,-SN,OVC,0.42,0.0,WeatherDisplay:10.37,2013-02-28 00:15:00,
2013-02-27 19:20:00,34.4,32.0,29.58,WSW,249,3.3,6.0,91,0.05,-SN,OVC,0.43,0.0,WeatherDisplay:10.37,2013-02-28 00:20:00,
2013-02-27 19:25:00,34.4,32.0,29.58,WSW,249,4.2,8.1,91,0.04,-SN,OVC,0.43,0.0,WeatherDisplay:10.37,2013-02-28 00:25:00,
2013-02-27 19:30:00,34.3,31.9,29.58,WSW,248,7.4,11.5,91,0.04,-SN,OVC,0.43,0.0,WeatherDisplay:10.37,2013-02-28 00:30:00,
2013-02-27 19:35:00,34.2,31.8,29.58,WSW,246,4.4,7.0,91,0.04,-SN,OVC,0.44,0.0,WeatherDisplay:10.37,2013-02-28 00:35:00,
2013-02-27 19:40:00,34.0,31.4,29.58,WSW,246,3.0,4.6,90,0.04,-SN,OVC,0.44,0.0,WeatherDisplay:10.37,2013-02-28 00:40:00,
2013-02-27 19:45:00,33.9,31.3,29.58,WSW,246,2.6,5.0,90,0.04,-SN,OVC,0.44,0.0,WeatherDisplay:10.37,2013-02-28 00:45:00,
2013-02-27 19:50:00,33.8,31.5,29.58,WSW,246,4.1,6.9,91,0.03,-SN,OVC,0.44,0.0,WeatherDisplay:10.37,2013-02-28 00:50:00,
2013-02-27 19:55:00,33.6,31.3,29.58,WSW,248,4.3,6.9,91,0.04,-SN,OVC,0.45,0.0,WeatherDisplay:10.37,2013-02-28 00:55:00,
2013-02-27 20:00:00,33.5,31.2,29.58,WSW,243,5.1,9.2,91,0.04,-SN,OVC,0.45,0.0,WeatherDisplay:10.37,2013-02-28 01:00:00,
2013-02-27 20:05:00,33.4,31.1,29.58,WSW,245,3.4,8.1,91,0.03,-SN,OVC,0.45,0.0,WeatherDisplay:10.37,2013-02-28 01:05:00,
2013-02-27 20:11:00,33.3,31.0,29.58,WSW,245,3.5,5.0,91,0.03,-SN,OVC,0.45,0.0,WeatherDisplay:10.37,2013-02-28 01:11:00,
2013-02-27 20:16:00,33.3,31.0,29.58,WSW,245,3.0,5.8,91,0.03,-SN,OVC,0.45,0.0,WeatherDisplay:10.37,2013-02-28 01:16:00,
2013-02-27 20:21:00,33.2,30.9,29.58,WSW,245,4.0,6.9,91,0.02,-SN,OVC,0.45,0.0,WeatherDisplay:10.37,2013-02-28 01:21:00,
2013-02-27 20:26:00,33.1,30.8,29.58,WSW,244,3.9,7.0,91,0.02,-SN,OVC,0.45,0.0,WeatherDisplay:10.37,2013-02-28 01:26:00,
2013-02-27 20:31:00,33.1,30.8,29.58,WSW,246,3.0,6.9,91,0.02,-SN,OVC,0.45,0.0,WeatherDisplay:10.37,2013-02-28 01:31:00,
2013-02-27 20:36:00,33.1,30.8,29.58,WSW,244,3.3,6.9,91,0.02,-SN,OVC,0.46,0.0,WeatherDisplay:10.37,2013-02-28 01:36:00,
2013-02-27 20:41:00,33.1,30.8,29.58,WSW,244,2.9,4.0,91,0.02,-SN,OVC,0.46,0.0,WeatherDisplay:10.37,2013-02-28 01:41:00,
2013-02-27 20:46:00,33.1,30.8,29.58,WSW,244,0.5,2.3,91,0.02,-SN,OVC,0.46,0.0,WeatherDisplay:10.37,2013-02-28 01:46:00,
2013-02-27 20:51:00,33.0,30.7,29.58,WSW,244,1.7,3.5,91,0.02,-SN,OVC,0.46,0.0,WeatherDisplay:10.37,2013-02-28 01:51:00,
2013-02-27 20:56:00,33.0,30.7,29.58,WSW,244,2.8,4.0,91,0.01,-SN,OVC,0.46,0.0,WeatherDisplay:10.37,2013-02-28 01:56:00,
2013-02-27 21:01:00,33.0,30.7,29.58,WSW,244,1.5,3.5,91,0.02,-SN,OVC,0.47,0.0,WeatherDisplay:10.37,2013-02-28 02:01:00,
2013-02-27 21:06:00,33.0,30.7,29.58,WSW,244,1.6,3.5,91,0.02,-SN,OVC,0.47,0.0,WeatherDisplay:10.37,2013-02-28 02:06:00,
2013-02-27 21:11:00,33.0,30.7,29.58,WSW,244,2.0,3.5,91,0.02,-SN,OVC,0.47,0.0,WeatherDisplay:10.37,2013-02-28 02:11:00,
2013-02-27 21:16:00,33.0,30.7,29.58,WSW,244,1.7,3.5,91,0.02,-SN,OVC,0.47,0.0,WeatherDisplay:10.37,2013-02-28 02:16:00,
2013-02-27 21:21:00,33.0,30.7,29.58,WSW,244,1.2,2.3,91,0.02,-SN,OVC,0.47,0.0,WeatherDisplay:10.37,2013-02-28 02:21:00,
2013-02-27 21:26:00,33.0,30.7,29.57,WSW,244,1.7,3.5,91,0.02,-SN,OVC,0.47,0.0,WeatherDisplay:10.37,2013-02-28 02:26:00,
2013-02-27 21:31:00,33.0,30.7,29.57,WSW,244,2.4,4.0,91,0.02,-SN,OVC,0.47,0.0,WeatherDisplay:10.37,2013-02-28 02:31:00,
2013-02-27 21:36:00,33.2,30.9,29.57,WSW,244,5.6,8.1,91,0.01,-SN,OVC,0.47,0.0,WeatherDisplay:10.37,2013-02-28 02:36:00,
2013-02-27 21:41:00,33.3,31.0,29.57,WSW,245,5.1,8.0,91,0.01,-SN,OVC,0.47,0.0,WeatherDisplay:10.37,2013-02-28 02:41:00,
2013-02-27 21:46:00,33.5,31.2,29.58,WSW,247,5.8,9.2,91,0.02,-SN,OVC,0.48,0.0,WeatherDisplay:10.37,2013-02-28 02:46:00,
2013-02-27 21:51:00,33.5,31.2,29.57,WSW,247,5.9,9.0,91,0.02,-SN,OVC,0.48,0.0,WeatherDisplay:10.37,2013-02-28 02:51:00,
2013-02-27 21:56:00,33.6,31.3,29.57,WSW,243,8.8,13.8,91,0.02,-SN,OVC,0.48,0.0,WeatherDisplay:10.37,2013-02-28 02:56:00,
2013-02-27 22:01:00,33.6,31.3,29.57,WSW,244,5.3,10.4,91,0.01,-SN,OVC,0.48,0.0,WeatherDisplay:10.37,2013-02-28 03:01:00,
2013-02-27 22:06:00,33.5,31.2,29.57,WSW,240,7.5,11.5,91,0.01,-SN,OVC,0.48,0.0,WeatherDisplay:10.37,2013-02-28 03:06:00,
2013-02-27 22:11:00,33.5,31.2,29.58,WSW,249,6.8,11.5,91,0.02,-SN,OVC,0.49,0.0,WeatherDisplay:10.37,2013-02-28 03:11:00,
2013-02-27 22:16:00,33.5,31.2,29.58,WSW,253,7.1,16.1,91,0.02,-SN,OVC,0.49,0.0,WeatherDisplay:10.37,2013-02-28 03:16:00,
2013-02-27 22:21:00,33.4,31.1,29.58,WSW,255,5.7,11.5,91,0.02,-SN,OVC,0.49,0.0,WeatherDisplay:10.37,2013-02-28 03:21:00,
2013-02-27 22:26:00,33.4,31.1,29.57,WSW,254,8.5,12.0,91,0.02,-SN,OVC,0.49,0.0,WeatherDisplay:10.37,2013-02-28 03:26:00,
2013-02-27 22:31:00,33.4,31.1,29.58,WSW,248,6.7,11.5,91,0.02,-SN,OVC,0.49,0.0,WeatherDisplay:10.37,2013-02-28 03:31:00,
2013-02-27 22:36:00,33.4,31.1,29.58,WSW,252,7.4,10.4,91,0.03,-SN,OVC,0.50,0.0,WeatherDisplay:10.37,2013-02-28 03:36:00,
2013-02-27 22:41:00,33.3,31.0,29.57,WSW,245,7.2,11.0,91,0.03,-SN,OVC,0.50,0.0,WeatherDisplay:10.37,2013-02-28 03:41:00,
2013-02-27 22:46:00,33.3,31.0,29.57,WSW,242,6.5,15.0,91,0.02,-SN,OVC,0.50,0.0,WeatherDisplay:10.37,2013-02-28 03:46:00,
2013-02-27 22:51:00,33.3,31.0,29.57,WSW,249,4.8,9.2,91,0.02,-SN,OVC,0.50,0.0,WeatherDisplay:10.37,2013-02-28 03:51:00,
2013-02-27 22:56:00,33.3,31.0,29.57,WSW,246,6.5,10.4,91,0.02,-SN,OVC,0.50,0.0,WeatherDisplay:10.37,2013-02-28 03:56:00,
2013-02-27 23:01:00,33.3,31.0,29.57,WSW,248,6.8,10.4,91,0.02,-SN,OVC,0.50,0.0,WeatherDisplay:10.37,2013-02-28 04:01:00,
2013-02-27 23:06:00,33.3,31.0,29.57,SW,236,4.6,11.5,91,0.02,-SN,OVC,0.50,0.0,WeatherDisplay:10.37,2013-02-28 04:06:00,
2013-02-27 23:11:00,33.3,31.0,29.58,WSW,255,8.5,13.0,91,0.01,-SN,OVC,0.50,0.0,WeatherDisplay:10.37,2013-02-28 04:11:00,
2013-02-27 23:16:00,33.3,31.0,29.57,WSW,245,7.2,11.5,91,0.01,-SN,OVC,0.50,0.0,WeatherDisplay:10.37,2013-02-28 04:16:00,
2013-02-27 23:21:00,33.2,30.9,29.57,WSW,248,8.3,12.0,91,0.01,-SN,OVC,0.50,0.0,WeatherDisplay:10.37,2013-02-28 04:21:00,
2013-02-27 23:26:00,33.2,30.9,29.57,WSW,240,4.3,6.9,91,0.01,-SN,OVC,0.50,0.0,WeatherDisplay:10.37,2013-02-28 04:26:00,
2013-02-27 23:31:00,33.2,30.9,29.57,WSW,245,5.7,10.4,91,0.01,-SN,OVC,0.50,0.0,WeatherDisplay:10.37,2013-02-28 04:31:00,
2013-02-27 23:36:00,33.2,30.9,29.57,WSW,248,6.5,10.4,91,0.00,-SN,OVC,0.50,0.0,WeatherDisplay:10.37,2013-02-28 04:36:00,
2013-02-27 23:41:00,33.2,30.9,29.57,WSW,249,5.9,11.5,91,0.01,-SN,OVC,0.51,0.0,WeatherDisplay:10.37,2013-02-28 04:41:00,
2013-02-27 23:46:00,33.2,30.9,29.57,WSW,247,5.1,8.1,91,0.01,-SN,OVC,0.51,0.0,WeatherDisplay:10.37,2013-02-28 04:46:00,
2013-02-27 23:51:00,33.2,30.9,29.57,WSW,250,8.7,12.0,91,0.01,-SN,OVC,0.51,0.0,WeatherDisplay:10.37,2013-02-28 04:51:00,
2013-02-27 23:56:00,33.2,30.9,29.57,WSW,253,5.8,10.0,91,0.01,-SN,OVC,0.51,0.0,WeatherDisplay:10.37,2013-02-28 04:56:00,